Cromberg, California
Current Conditions -  °F | °C
As of 3:32 AM on Saturday 01 Nov 2014 (Local Time) from KBLU Reporting Station
Moderate Rain Moderate Rain  
Wind Chill: 27°   Ceiling: 400
Heat Index: 35°   Visibility: 2mi
Dew Point: 33°   Wind: 10mph
Humidity: 92%   Direction: 170°S
Pressure: 29.71"   Gusts: NA
Location:  39.7722°N, 120.711°W
Report Text: KBLU 011032Z AUTO 17009KT 2SM RA BR OVC004 02/01 A2971 RMK AO2 P0003 T00170006
Loading
Personal Weather Stations






























Interactive Weather Map
Tropical Storm Tracking
New forecast layout! Learn more

10-Day Weather Forecast

Advertisements
Track Severe Weather on mobile